Alpha, Minnesota
Current Conditions -  °F | °C
As of 12:34 PM on Friday 31 Oct 2014 (Local Time) from KMJQ Reporting Station
Clear Clear  
Wind Chill: 26°   Ceiling: Unl
Heat Index: 34°   Visibility: 10mi
Dew Point: 19°   Wind: 9mph
Humidity: 56%   Direction: 350°N
Pressure: 30.54"   Gusts: 16mph
Location:  43.64°N, 94.87°W
Report Text: KMJQ 311734Z AUTO 35008G14KT 10SM CLR 01/M07 A3054 RMK AO2
Loading
Personal Weather Stations






























Interactive Weather Map
Tropical Storm Tracking
New forecast layout! Learn more

10-Day Weather Forecast

Advertisements
Track Severe Weather on mobile